| Date | Time | Temp. (oF) | Dew Point (oF) | Rel. Hum. (%) | Press. (in.) | Wind Dir. | Wind Speed (mph) | Hourly Rainfall (in.) |
|
|---|---|---|---|---|---|---|---|---|---|
| 1 | 08/29 | 00:00 | 63 | 59 | 89 | 30.20 | SSW | 0 | 0.00 |
| 2 | 08/28 | 23:00 | 64 | 59 | 85 | 30.20 | ENE | 0 | 0.00 |
| 3 | 08/28 | 22:00 | 67 | 60 | 79 | 30.19 | ENE | 0 | 0.00 |
| 4 | 08/28 | 21:00 | 71 | 59 | 67 | 30.18 | ENE | 0 | 0.00 |
| 5 | 08/28 | 20:00 | 75 | 57 | 55 | 30.16 | ENE | 3 | 0.00 |
| 6 | 08/28 | 19:00 | 81 | 55 | 42 | 30.14 | W | 2 | 0.00 |
| 7 | 08/28 | 18:00 | 83 | 54 | 38 | 30.14 | WNW | 2 | 0.00 |
| 8 | 08/28 | 17:00 | 84 | 56 | 39 | 30.14 | WNW | 1 | 0.00 |
| 9 | 08/28 | 16:00 | 85 | 58 | 41 | 30.16 | SW | 4 | 0.00 |
| 10 | 08/28 | 15:00 | 84 | 56 | 39 | 30.18 | N | 5 | 0.00 |
| 11 | 08/28 | 14:00 | 83 | 56 | 41 | 30.20 | NNE | 6 | 0.00 |
| 12 | 08/28 | 13:00 | 82 | 58 | 46 | 30.22 | NNE | 5 | 0.00 |
| 13 | 08/28 | 12:00 | 80 | 58 | 48 | 30.24 | N | 4 | 0.00 |
| 14 | 08/28 | 11:00 | 76 | 62 | 63 | 30.24 | S | 0 | 0.00 |
| 15 | 08/28 | 10:00 | 70 | 61 | 74 | 30.24 | ESE | 0 | 0.00 |
| 16 | 08/28 | 09:00 | 64 | 60 | 89 | 30.24 | SSE | 0 | 0.00 |
| 17 | 08/28 | 08:00 | 57 | 56 | 99 | 30.24 | S | 0 | 0.00 |
| 18 | 08/28 | 07:00 | 54 | 53 | 99 | 30.22 | S | 0 | 0.00 |
| 19 | 08/28 | 06:00 | 54 | 53 | 99 | 30.20 | S | 0 | 0.00 |
| 20 | 08/28 | 05:00 | 55 | 54 | 98 | 30.18 | NW | 0 | 0.00 |
| 21 | 08/28 | 04:00 | 56 | 54 | 96 | 30.16 | NW | 0 | 0.00 |
| 22 | 08/28 | 03:00 | 56 | 54 | 95 | 30.15 | NW | 0 | 0.00 |
| 23 | 08/28 | 02:00 | 57 | 55 | 94 | 30.16 | NNW | 0 | 0.00 |
| 24 | 08/28 | 01:00 | 58 | 55 | 91 | 30.16 | N | 0 | 0.00 |